Time;durP1;ratioP1;P1;durP2;ratioP2;P2;SDS_P1;SDS_P2;PMS_P1;PMS_P2;Temp;Humidity;BMP_temperature;BMP_pressure;BME280_temperature;BME280_humidity;BME280_pressure;Samples;Min_cycle;Max_cycle;Signal;HPM_P1;HPM_P2
2022/04/20 00:01:28;;;;;;;4.13;3.15;;;;;;;8.89;55.22;101450.09;5053743;28;20025;-69
2022/04/20 00:03:53;;;;;;;7.93;2.97;;;;;;;8.83;55.49;101448.63;5059275;28;20488;-69
2022/04/20 00:06:19;;;;;;;7.45;2.95;;;;;;;8.82;55.78;101449.59;5059786;28;20451;-75
2022/04/20 00:08:44;;;;;;;4.05;3.15;;;;;;;8.80;55.65;101447.91;5047641;28;20099;-68
2022/04/20 00:11:09;;;;;;;4.38;2.78;;;;;;;8.75;55.97;101450.88;5064672;28;20032;-76
2022/04/20 00:13:35;;;;;;;4.22;2.67;;;;;;;8.70;56.25;101450.25;5064770;28;20094;-68
2022/04/20 00:16:01;;;;;;;4.10;2.80;;;;;;;8.65;56.19;101447.78;5058544;28;20040;-77
2022/04/20 00:18:26;;;;;;;6.30;3.28;;;;;;;8.62;56.21;101441.66;5044883;28;20028;-70
2022/04/20 00:20:51;;;;;;;3.25;2.58;;;;;;;8.59;56.81;101448.13;5062871;28;20458;-78
2022/04/20 00:23:17;;;;;;;5.03;2.70;;;;;;;8.56;56.60;101434.72;5065308;28;20040;-68
2022/04/20 00:25:42;;;;;;;5.35;3.25;;;;;;;8.50;56.54;101440.50;5066368;28;20127;-69
2022/04/20 00:28:08;;;;;;;4.45;3.22;;;;;;;8.47;57.22;101443.38;5046546;28;20048;-75
2022/04/20 00:30:33;;;;;;;7.00;3.33;;;;;;;8.44;56.92;101454.41;5064956;28;20039;-76
2022/04/20 00:32:59;;;;;;;4.22;2.97;;;;;;;8.42;56.91;101449.03;5065720;28;20039;-68
2022/04/20 00:35:25;;;;;;;4.57;2.85;;;;;;;8.38;57.27;101455.56;5065103;28;20071;-68
2022/04/20 00:37:50;;;;;;;6.80;3.40;;;;;;;8.33;57.36;101454.03;5064739;28;20071;-68
2022/04/20 00:40:17;;;;;;;4.07;3.00;;;;;;;8.27;57.14;101457.09;5077005;28;20028;-69
2022/04/20 00:42:43;;;;;;;5.63;2.90;;;;;;;8.27;56.96;101455.25;5067351;28;20044;-68
2022/04/20 00:45:10;;;;;;;3.58;2.80;;;;;;;8.20;58.02;101456.53;5047744;28;20027;-69
2022/04/20 00:47:37;;;;;;;6.47;3.63;;;;;;;8.15;57.82;101458.59;5066587;28;20045;-76
2022/04/20 00:50:06;;;;;;;3.58;2.67;;;;;;;8.14;57.47;101463.16;5052376;28;20036;-78
2022/04/20 00:52:31;;;;;;;4.78;3.40;;;;;;;8.12;57.28;101465.06;5069436;28;20025;-70
2022/04/20 00:54:57;;;;;;;6.53;2.92;;;;;;;8.07;57.55;101464.44;5070407;28;20040;-78
2022/04/20 00:57:22;;;;;;;4.85;3.33;;;;;;;8.04;57.69;101458.31;5065498;28;20044;-78
2022/04/20 00:59:49;;;;;;;4.50;2.95;;;;;;;7.99;57.46;101458.53;5049357;28;20060;-69
2022/04/20 01:02:15;;;;;;;5.00;3.28;;;;;;;7.97;57.92;101459.56;5059661;28;20039;-78
2022/04/20 01:04:42;;;;;;;5.82;3.20;;;;;;;7.98;57.42;101464.06;5064452;28;20029;-76
2022/04/20 01:07:13;;;;;;;4.07;3.20;;;;;;;7.90;57.74;101464.44;5069343;28;20138;-73
2022/04/20 01:09:57;;;;;;;4.43;3.00;;;;;;;7.86;57.72;101462.84;5057183;28;20114;-69
2022/04/20 01:12:57;;;;;;;4.72;2.88;;;;;;;7.83;58.31;101462.97;5061628;28;20455;-69
2022/04/20 01:15:55;;;;;;;5.97;3.28;;;;;;;7.80;58.03;101464.03;5043048;28;20133;-68
2022/04/20 01:18:43;;;;;;;5.15;3.35;;;;;;;7.74;58.77;101464.34;5067680;28;20284;-69
2022/04/20 01:21:35;;;;;;;7.38;3.08;;;;;;;7.72;57.82;101458.13;5069992;28;20036;-77
2022/04/20 01:24:11;;;;;;;5.78;3.75;;;;;;;7.65;58.74;101465.69;5064089;28;20381;-69
2022/04/20 01:26:57;;;;;;;4.28;3.00;;;;;;;7.59;60.00;101463.25;5084842;28;20119;-77
2022/04/20 01:29:31;;;;;;;9.18;4.18;;;;;;;7.52;61.00;101467.25;5063332;28;20056;-70
2022/04/20 01:32:15;;;;;;;4.20;3.22;;;;;;;7.54;59.58;101456.34;5064101;28;20044;-76
2022/04/20 01:34:53;;;;;;;5.40;3.25;;;;;;;7.48;60.16;101462.94;5053057;28;20054;-68
2022/04/20 01:37:18;;;;;;;7.18;3.50;;;;;;;7.49;59.86;101461.09;5066846;28;20028;-70
2022/04/20 01:39:45;;;;;;;4.20;3.60;;;;;;;7.43;60.00;101456.00;5076565;28;20032;-75
2022/04/20 01:42:11;;;;;;;4.82;3.40;;;;;;;7.44;58.82;101469.44;5071873;28;20400;-68
2022/04/20 01:44:41;;;;;;;4.70;3.75;;;;;;;7.48;59.17;101465.66;5064228;28;20476;-76
2022/04/20 01:47:26;;;;;;;5.72;3.20;;;;;;;7.45;59.63;101463.06;5069727;28;20146;-69
2022/04/20 01:50:09;;;;;;;6.93;3.67;;;;;;;7.43;60.58;101461.41;5070062;28;20497;-75
2022/04/20 01:52:42;;;;;;;5.45;3.95;;;;;;;7.39;60.75;101464.25;5054071;28;20040;-69
2022/04/20 01:55:26;;;;;;;4.75;3.50;;;;;;;7.37;60.97;101468.00;5070921;28;20043;-69
2022/04/20 01:57:55;;;;;;;7.25;3.55;;;;;;;7.32;60.34;101467.34;5070882;28;20048;-70
2022/04/20 02:00:37;;;;;;;6.93;3.38;;;;;;;7.32;60.12;101460.13;5043459;28;20101;-73
2022/04/20 02:03:32;;;;;;;5.57;3.88;;;;;;;7.32;59.66;101462.81;5052545;28;20047;-68
2022/04/20 02:06:10;;;;;;;5.03;4.13;;;;;;;7.26;60.49;101463.09;5057886;28;20396;-70
2022/04/20 02:08:47;;;;;;;6.95;4.18;;;;;;;7.24;60.22;101466.84;5070282;28;20518;-78
2022/04/20 02:11:31;;;;;;;6.60;3.55;;;;;;;7.20;60.78;101462.53;5069038;28;20101;-68
2022/04/20 02:14:09;;;;;;;5.60;3.83;;;;;;;7.16;59.91;101468.09;5052967;28;20399;-70
2022/04/20 02:16:36;;;;;;;6.35;3.40;;;;;;;7.14;60.19;101464.59;5069465;28;20032;-72
2022/04/20 02:19:20;;;;;;;6.38;3.92;;;;;;;7.05;61.03;101464.16;5063571;28;20035;-68
2022/04/20 02:21:56;;;;;;;4.43;3.38;;;;;;;7.01;61.34;101468.84;5070695;28;20454;-69
2022/04/20 02:24:21;;;;;;;4.35;3.47;;;;;;;6.99;60.06;101469.84;5069835;28;20044;-70
2022/04/20 02:26:47;;;;;;;10.05;4.07;;;;;;;6.95;60.78;101465.53;5069078;28;20074;-70
2022/04/20 02:29:12;;;;;;;7.30;3.80;;;;;;;6.90;61.37;101461.25;5065672;28;20032;-76
2022/04/20 02:31:38;;;;;;;4.75;3.40;;;;;;;6.90;60.27;101463.94;5067942;28;20396;-70
2022/04/20 02:34:03;;;;;;;7.80;4.15;;;;;;;6.86;61.49;101466.88;5065821;28;20090;-76
2022/04/20 02:36:28;;;;;;;6.18;4.25;;;;;;;6.79;61.93;101460.84;5059412;28;20063;-77
2022/04/20 02:38:55;;;;;;;5.57;3.58;;;;;;;6.75;61.84;101461.94;5069643;28;20020;-69
2022/04/20 02:41:20;;;;;;;7.85;3.80;;;;;;;6.73;62.00;101461.16;5070083;28;20086;-69
2022/04/20 02:43:45;;;;;;;5.65;3.97;;;;;;;6.71;61.58;101454.91;5064440;28;20052;-78
2022/04/20 02:46:11;;;;;;;5.70;3.92;;;;;;;6.68;61.91;101457.78;5048140;28;20045;-77
2022/04/20 02:48:37;;;;;;;5.20;3.83;;;;;;;6.65;62.44;101466.91;5060367;28;20104;-78
2022/04/20 02:51:02;;;;;;;8.15;3.83;;;;;;;6.63;62.17;101470.63;5063514;28;20032;-78
2022/04/20 02:53:28;;;;;;;6.45;3.72;;;;;;;6.59;62.06;101475.28;5070263;28;20024;-75
2022/04/20 02:55:53;;;;;;;6.40;3.85;;;;;;;6.57;62.28;101479.00;5068792;28;20392;-75
2022/04/20 02:58:19;;;;;;;7.75;3.63;;;;;;;6.55;62.24;101476.38;5050526;28;20639;-69
2022/04/20 03:00:51;;;;;;;5.47;3.80;;;;;;;6.48;62.87;101474.91;5064530;28;20393;-69
2022/04/20 03:03:38;;;;;;;5.82;3.83;;;;;;;6.46;62.24;101471.41;5067289;28;20070;-77
2022/04/20 03:06:19;;;;;;;5.60;4.20;;;;;;;6.45;62.11;101480.47;5063956;28;20040;-77
2022/04/20 03:08:44;;;;;;;6.20;3.88;;;;;;;6.45;61.67;101476.88;5068060;28;20021;-69
2022/04/20 03:11:13;;;;;;;5.45;3.70;;;;;;;6.45;61.52;101476.88;5069031;28;20036;-69
2022/04/20 03:13:40;;;;;;;6.75;3.88;;;;;;;6.47;62.18;101474.97;5067744;28;20503;-77
2022/04/20 03:16:06;;;;;;;5.28;3.72;;;;;;;6.49;61.30;101479.38;5067803;28;20153;-70
2022/04/20 03:18:32;;;;;;;6.85;4.32;;;;;;;6.47;61.31;101486.66;5066145;28;20424;-79
2022/04/20 03:21:02;;;;;;;6.85;4.40;;;;;;;6.43;62.20;101485.03;5055341;28;20111;-69
2022/04/20 03:23:28;;;;;;;7.13;4.05;;;;;;;6.39;62.38;101484.31;5068162;28;20029;-70
2022/04/20 03:25:58;;;;;;;6.55;3.53;;;;;;;6.37;61.63;101494.31;5052628;28;20475;-70
2022/04/20 03:28:53;;;;;;;6.95;3.17;;;;;;;6.35;62.48;101489.94;5048224;28;20108;-70
2022/04/20 03:31:19;;;;;;;6.43;3.85;;;;;;;6.37;60.92;101488.91;5050566;28;20048;-77
2022/04/20 03:33:44;;;;;;;6.18;3.90;;;;;;;6.41;60.93;101488.78;5051422;28;20036;-76
2022/04/20 03:36:10;;;;;;;7.18;3.72;;;;;;;6.43;60.83;101490.44;5070185;28;20479;-71
2022/04/20 03:38:36;;;;;;;6.38;4.10;;;;;;;6.44;60.89;101492.22;5052320;28;20060;-70
2022/04/20 03:41:05;;;;;;;7.78;3.75;;;;;;;6.42;60.78;101490.53;5070058;28;20069;-69
2022/04/20 03:43:31;;;;;;;8.25;4.55;;;;;;;6.39;61.57;101502.38;5063147;28;20017;-68
2022/04/20 03:45:56;;;;;;;4.72;3.95;;;;;;;6.34;61.55;101494.47;5050549;28;20029;-71
2022/04/20 03:48:22;;;;;;;7.93;3.92;;;;;;;6.33;61.62;101502.59;5049097;28;20409;-68
2022/04/20 03:50:48;;;;;;;5.43;4.00;;;;;;;6.37;60.47;101504.22;5063093;28;20025;-77
2022/04/20 03:53:13;;;;;;;6.35;3.88;;;;;;;6.37;60.68;101507.81;5068311;28;20320;-77
2022/04/20 03:55:39;;;;;;;8.43;4.00;;;;;;;6.35;60.35;101492.63;5068650;28;20041;-78
2022/04/20 03:58:05;;;;;;;8.75;4.90;;;;;;;6.35;61.55;101495.34;5065576;28;20036;-72
2022/04/20 04:00:31;;;;;;;6.80;4.47;;;;;;;6.32;61.78;101499.03;5072325;28;20039;-70
2022/04/20 04:02:57;;;;;;;5.90;3.95;;;;;;;6.29;61.93;101503.69;5067598;28;20036;-76
2022/04/20 04:05:32;;;;;;;5.93;4.07;;;;;;;6.29;61.36;101507.25;5051729;28;20025;-69
2022/04/20 04:08:05;;;;;;;6.88;3.85;;;;;;;6.29;60.85;101511.78;5068515;28;20127;-78
2022/04/20 04:10:33;;;;;;;5.13;3.60;;;;;;;6.28;61.68;101510.03;5067898;28;20115;-70
2022/04/20 04:12:58;;;;;;;6.57;4.03;;;;;;;6.24;61.42;101503.91;5068049;28;20128;-73
2022/04/20 04:15:25;;;;;;;11.02;4.40;;;;;;;6.24;61.20;101509.28;5047238;28;20036;-69
2022/04/20 04:17:58;;;;;;;7.43;4.15;;;;;;;6.22;61.70;101513.91;5068224;28;20447;-69
2022/04/20 04:20:26;;;;;;;6.97;3.63;;;;;;;6.20;61.53;101506.78;5067277;28;20025;-77
2022/04/20 04:22:53;;;;;;;6.50;3.80;;;;;;;6.18;62.46;101511.41;5067962;28;20032;-70
2022/04/20 04:25:47;;;;;;;7.57;3.80;;;;;;;6.14;61.41;101511.53;5039862;28;20119;-78
2022/04/20 04:28:19;;;;;;;6.50;4.05;;;;;;;6.14;61.36;101513.34;5067451;28;20068;-70
2022/04/20 04:30:45;;;;;;;5.55;3.78;;;;;;;6.12;62.10;101517.94;5056513;28;20484;-71
2022/04/20 04:33:10;;;;;;;6.25;3.97;;;;;;;6.10;61.43;101523.41;5071364;28;20035;-76
2022/04/20 04:35:36;;;;;;;8.15;4.45;;;;;;;6.05;62.10;101520.03;5080956;28;20028;-76
2022/04/20 04:38:04;;;;;;;4.75;3.72;;;;;;;6.00;62.80;101526.56;5072358;28;20024;-69
2022/04/20 04:40:31;;;;;;;9.05;4.03;;;;;;;5.99;61.81;101527.53;5072294;28;20051;-70
2022/04/20 04:42:58;;;;;;;6.72;4.15;;;;;;;6.01;63.32;101536.41;5058664;28;20452;-70
2022/04/20 04:51:09;;;;;;;6.00;3.90;;;;;;;5.91;63.89;101540.44;5072072;28;20507;-78
2022/04/20 04:53:36;;;;;;;7.10;4.00;;;;;;;5.87;64.14;101536.97;5071985;28;20489;-70
2022/04/20 04:56:02;;;;;;;5.00;3.58;;;;;;;5.85;64.19;101545.16;5072123;28;20028;-69
2022/04/20 04:58:28;;;;;;;7.32;4.38;;;;;;;5.84;63.90;101545.22;5068649;28;20025;-77
2022/04/20 05:00:53;;;;;;;6.03;4.13;;;;;;;5.87;64.19;101550.47;5069976;28;20041;-68
2022/04/20 05:03:25;;;;;;;5.03;4.32;;;;;;;5.83;64.40;101551.56;5053879;28;20016;-75
2022/04/20 05:05:51;;;;;;;7.43;4.40;;;;;;;5.83;64.67;101549.75;5071724;28;20033;-76
2022/04/20 05:08:37;;;;;;;8.63;4.50;;;;;;;5.80;64.31;101547.16;5067994;28;20194;-69
2022/04/20 05:11:03;;;;;;;6.60;4.47;;;;;;;5.83;64.42;101554.25;5072022;28;20119;-69
2022/04/20 05:13:28;;;;;;;8.30;4.13;;;;;;;5.84;65.98;101553.31;5050865;28;20109;-76
2022/04/20 05:15:54;;;;;;;7.93;4.80;;;;;;;5.85;65.78;101552.38;5063589;28;20032;-78
2022/04/20 05:18:19;;;;;;;8.68;4.78;;;;;;;5.88;66.35;101558.53;5052969;28;20085;-76
2022/04/20 05:20:45;;;;;;;8.73;4.60;;;;;;;5.89;66.33;101554.00;5080024;28;20031;-70
2022/04/20 05:23:12;;;;;;;8.43;4.22;;;;;;;5.88;65.81;101553.13;5053683;28;20115;-78
2022/04/20 05:25:39;;;;;;;6.53;4.88;;;;;;;5.91;66.00;101553.94;5070942;28;20368;-77
2022/04/20 05:28:06;;;;;;;6.97;4.95;;;;;;;5.95;65.99;101561.00;5070336;28;20037;-76
2022/04/20 05:30:31;;;;;;;7.45;5.20;;;;;;;5.97;66.71;101553.69;5068746;28;20086;-77
2022/04/20 05:32:58;;;;;;;8.70;4.65;;;;;;;6.03;66.37;101559.75;5070031;28;20123;-70
2022/04/20 05:35:26;;;;;;;6.13;4.18;;;;;;;6.11;64.47;101559.44;5069984;28;20119;-77
2022/04/20 05:43:31;;;;;;;8.43;4.65;;;;;;;6.45;63.35;101558.84;5065540;28;20028;-78
2022/04/20 05:45:57;;;;;;;7.22;4.20;;;;;;;6.62;62.94;101563.47;5078417;28;20114;-70
2022/04/20 05:48:33;;;;;;;9.55;5.18;;;;;;;6.72;62.60;101562.16;5066763;28;21661;-69
2022/04/20 05:50:58;;;;;;;9.23;4.43;;;;;;;6.78;63.20;101563.69;5070843;28;20125;-77
2022/04/20 05:53:27;;;;;;;5.75;4.13;;;;;;;6.83;62.46;101567.94;5068992;28;20020;-75
2022/04/20 05:55:53;;;;;;;7.80;4.88;;;;;;;6.89;62.76;101564.06;5070113;28;20522;-76
2022/04/20 05:58:18;;;;;;;10.10;5.03;;;;;;;6.93;62.71;101567.53;5067528;28;20028;-75
2022/04/20 06:00:44;;;;;;;10.18;5.20;;;;;;;6.99;61.71;101565.41;5068080;28;20035;-68
2022/04/20 06:03:28;;;;;;;6.65;4.35;;;;;;;7.07;60.99;101563.22;5067918;28;20113;-70
2022/04/20 06:06:03;;;;;;;5.72;3.70;;;;;;;7.22;61.33;101569.75;5070429;28;20024;-69
2022/04/20 06:08:42;;;;;;;9.57;4.35;;;;;;;7.34;60.10;101555.66;5070419;28;20087;-76
2022/04/20 06:11:24;;;;;;;8.40;4.07;;;;;;;7.53;59.68;101558.34;5043138;28;20495;-70
2022/04/20 06:13:50;;;;;;;8.90;4.00;;;;;;;7.62;59.79;101560.59;5068337;28;20028;-75
2022/04/20 06:16:28;;;;;;;6.55;4.35;;;;;;;7.77;60.93;101564.38;5041221;28;20072;-69
2022/04/20 06:19:03;;;;;;;11.63;4.20;;;;;;;7.88;60.74;101559.34;5069523;28;20028;-78
2022/04/20 06:21:38;;;;;;;6.22;4.30;;;;;;;7.97;58.88;101567.94;5054970;28;20040;-75
2022/04/20 06:24:08;;;;;;;5.50;3.92;;;;;;;8.05;59.36;101569.31;5068942;28;20032;-70
2022/04/20 06:26:42;;;;;;;7.43;4.03;;;;;;;8.45;57.72;101566.44;5069707;28;20392;-72
2022/04/20 06:29:24;;;;;;;9.05;4.32;;;;;;;8.94;56.52;101571.00;5059361;28;20686;-70
2022/04/20 06:32:12;;;;;;;8.45;4.50;;;;;;;8.77;56.86;101568.34;5067740;28;20028;-68
2022/04/20 06:35:01;;;;;;;6.15;4.05;;;;;;;8.68;57.58;101577.84;5061133;28;20048;-74
2022/04/20 06:37:50;;;;;;;5.80;3.88;;;;;;;8.74;58.14;101576.63;5069604;28;20043;-78
2022/04/20 06:40:33;;;;;;;;;;;;;;;8.78;57.95;101574.63;5056615;28;20042;-75
2022/04/20 06:43:17;;;;;;;7.85;4.60;;;;;;;9.00;55.82;101580.66;5067672;28;20414;-78
2022/04/20 06:45:59;;;;;;;6.63;4.40;;;;;;;9.19;56.04;101581.41;5056106;28;20083;-69
2022/04/20 06:48:54;;;;;;;6.22;3.85;;;;;;;9.50;54.48;101584.25;5048562;28;20114;-78
2022/04/20 07:00:05;;;;;;;9.40;4.32;;;;;;;9.65;56.79;101581.56;5066644;28;20450;-68
2022/04/20 07:03:03;;;;;;;7.43;4.05;;;;;;;10.11;53.73;101581.59;5060109;28;20032;-73
2022/04/20 07:05:47;;;;;;;11.70;4.80;;;;;;;10.19;53.76;101575.72;5057139;28;20047;-70
2022/04/20 07:08:35;;;;;;;7.72;5.35;;;;;;;10.08;54.36;101576.38;5069547;28;20037;-77
2022/04/20 07:11:07;;;;;;;7.63;4.38;;;;;;;9.99;53.78;101576.91;5068708;28;20119;-68
2022/04/20 07:13:33;;;;;;;11.35;4.25;;;;;;;9.95;55.54;101581.63;5065711;28;20062;-78
2022/04/20 07:15:58;;;;;;;11.10;4.50;;;;;;;9.99;53.12;101582.34;5067324;28;20025;-78
2022/04/20 07:18:27;;;;;;;6.82;4.40;;;;;;;10.04;53.71;101579.34;5066702;28;20078;-74
2022/04/20 07:21:20;;;;;;;7.03;4.05;;;;;;;10.01;54.37;101583.13;5057811;28;20353;-75
2022/04/20 07:24:11;;;;;;;6.13;4.80;;;;;;;10.01;54.84;101580.41;5059914;28;20094;-68
2022/04/20 07:27:05;;;;;;;5.63;4.45;;;;;;;10.04;54.59;101579.34;5066043;28;20097;-70
2022/04/20 07:29:52;;;;;;;8.75;4.05;;;;;;;10.07;54.81;101574.63;5057897;28;20484;-71
2022/04/20 07:32:28;;;;;;;7.57;4.55;;;;;;;10.13;54.65;101578.81;5068543;28;20032;-69
2022/04/20 07:35:12;;;;;;;6.00;4.07;;;;;;;10.14;53.39;101580.56;5063832;28;20052;-75
2022/04/20 07:37:57;;;;;;;10.27;4.50;;;;;;;10.16;54.45;101584.06;5068361;28;20161;-68
2022/04/20 07:40:42;;;;;;;10.45;4.10;;;;;;;10.26;53.73;101584.41;5060528;28;20499;-67
2022/04/20 07:43:22;;;;;;;11.02;4.22;;;;;;;10.48;54.66;101588.47;5051119;28;20111;-69
2022/04/20 07:46:00;;;;;;;5.68;3.67;;;;;;;10.99;52.23;101582.66;5065082;28;20025;-74
2022/04/20 07:48:44;;;;;;;6.45;4.13;;;;;;;11.32;53.05;101584.22;5065297;28;20048;-69
2022/04/20 07:51:35;;;;;;;5.55;3.40;;;;;;;11.55;49.71;101589.09;5064973;28;20032;-78
2022/04/20 07:54:36;;;;;;;6.57;4.00;;;;;;;11.78;50.29;101597.63;5000853;28;20502;-67
2022/04/20 07:57:19;;;;;;;6.03;3.60;;;;;;;11.86;49.84;101590.72;5061483;28;20044;-69
2022/04/20 08:00:03;;;;;;;9.93;4.20;;;;;;;12.00;49.60;101585.22;5065201;28;20333;-76
2022/04/20 08:03:12;;;;;;;8.05;3.92;;;;;;;12.18;50.59;101590.44;5067458;28;20048;-67
2022/04/20 08:05:38;;;;;;;5.55;3.80;;;;;;;12.29;49.43;101589.69;5053315;28;20039;-70
2022/04/20 08:08:06;;;;;;;61.45;6.97;;;;;;;12.44;47.05;101589.53;5068487;28;20039;-67
2022/04/20 08:10:31;;;;;;;14.77;4.22;;;;;;;12.90;47.90;101600.00;5066995;28;20029;-69
2022/04/20 08:12:56;;;;;;;7.40;3.53;;;;;;;13.23;48.48;101595.88;5068361;28;20038;-73
2022/04/20 08:15:26;;;;;;;6.07;3.85;;;;;;;13.77;48.71;101592.88;5063945;28;20504;-67
2022/04/20 08:17:52;;;;;;;6.75;3.92;;;;;;;14.37;44.42;101594.72;5068245;28;20057;-68
2022/04/20 08:20:36;;;;;;;6.00;3.75;;;;;;;14.56;43.81;101594.22;5067499;28;20043;-76
2022/04/20 08:23:02;;;;;;;7.95;4.20;;;;;;;14.45;41.97;101596.84;5068037;28;20419;-75
2022/04/20 08:25:27;;;;;;;4.25;3.63;;;;;;;14.57;43.45;101593.22;5067955;28;20040;-67
2022/04/20 08:27:53;;;;;;;6.30;3.80;;;;;;;14.57;43.85;101600.56;5069375;28;20063;-67
2022/04/20 08:30:18;;;;;;;7.60;4.97;;;;;;;14.91;42.64;101593.31;5059201;28;20024;-68
2022/04/20 08:32:44;;;;;;;6.90;3.95;;;;;;;15.48;44.17;101593.28;5058179;28;20044;-73
2022/04/20 08:35:09;;;;;;;5.35;4.22;;;;;;;15.73;42.78;101597.66;5054967;28;20028;-66
2022/04/20 08:37:34;;;;;;;5.85;4.10;;;;;;;16.37;43.09;101596.00;5051671;28;20079;-76
2022/04/20 08:40:00;;;;;;;8.18;4.15;;;;;;;16.59;38.26;101593.16;5063775;28;20044;-67
2022/04/20 08:42:28;;;;;;;5.20;3.92;;;;;;;16.73;39.67;101589.25;5057412;28;20361;-66
2022/04/20 08:44:56;;;;;;;15.50;4.22;;;;;;;16.80;38.46;101591.34;5066284;28;20101;-73
2022/04/20 09:15:31;;;;;;;7.40;4.78;;;;;;;16.68;37.68;101578.63;5059612;28;20128;-74
2022/04/20 09:17:58;;;;;;;5.05;4.18;;;;;;;16.92;38.06;101580.28;5071155;28;20083;-76
2022/04/20 09:20:23;;;;;;;14.30;4.82;;;;;;;16.82;35.07;101583.81;5072860;28;20075;-66
2022/04/20 09:23:09;;;;;;;7.18;4.13;;;;;;;16.53;36.50;101574.47;5070388;28;20500;-75
2022/04/20 09:25:36;;;;;;;6.78;4.28;;;;;;;16.94;36.08;101576.41;5062384;28;20096;-73
2022/04/20 09:28:04;;;;;;;6.10;4.50;;;;;;;17.33;38.01;101571.13;5069879;28;20042;-72
2022/04/20 09:30:35;;;;;;;6.32;3.90;;;;;;;17.41;35.20;101576.81;5065863;28;20114;-76
2022/04/20 09:33:02;;;;;;;8.95;3.97;;;;;;;17.71;34.93;101572.28;5051841;28;20029;-68
2022/04/20 09:35:28;;;;;;;6.30;3.75;;;;;;;17.82;32.30;101564.84;5065583;28;20060;-66
2022/04/20 09:38:05;;;;;;;10.52;4.28;;;;;;;17.79;35.22;101564.25;5072156;28;20124;-68
2022/04/20 09:40:49;;;;;;;4.90;3.63;;;;;;;18.04;37.71;101558.19;5064505;28;20056;-67
2022/04/20 09:43:21;;;;;;;6.55;4.00;;;;;;;18.32;36.57;101561.13;5069920;28;20024;-76
2022/04/20 09:46:03;;;;;;;5.03;3.90;;;;;;;18.63;35.55;101555.50;5065720;28;20048;-73
2022/04/20 09:51:20;;;;;;;5.10;3.35;;;;;;;18.06;34.06;101550.69;5068891;28;20033;-68
2022/04/20 09:53:49;;;;;;;5.78;3.72;;;;;;;17.74;30.77;101553.66;5071374;28;20041;-68
2022/04/20 09:56:21;;;;;;;7.10;3.95;;;;;;;17.21;32.68;101556.59;5072141;28;20050;-68
2022/04/20 09:58:57;;;;;;;5.38;3.83;;;;;;;17.51;34.26;101558.47;5064908;28;20033;-76
2022/04/20 10:01:34;;;;;;;6.50;3.90;;;;;;;17.56;34.55;101549.78;5064525;28;20033;-66
2022/04/20 10:04:01;;;;;;;5.35;2.75;;;;;;;17.56;33.87;101553.41;5059546;28;20032;-74
2022/04/20 10:06:27;;;;;;;4.28;2.90;;;;;;;17.38;36.14;101557.81;5071930;28;20033;-67
2022/04/20 10:08:53;;;;;;;4.93;3.25;;;;;;;17.58;34.94;101545.03;5068539;28;20258;-68
2022/04/20 10:11:22;;;;;;;6.07;3.60;;;;;;;18.01;35.16;101544.75;5061943;28;20036;-67
2022/04/20 10:16:05;;;;;;;5.05;2.92;;;;;;;18.18;33.31;101540.41;5064310;28;20060;-76
2022/04/20 10:16:38;;;;;;;9.82;3.55;;;;;;;17.83;32.66;101533.53;5063532;28;20085;-75
2022/04/20 10:19:05;;;;;;;6.55;3.42;;;;;;;17.95;36.21;101541.66;5068430;28;20399;-68
2022/04/20 10:21:32;;;;;;;4.40;3.30;;;;;;;18.08;33.68;101536.75;5069665;28;20505;-67
2022/04/20 10:24:05;;;;;;;5.07;3.30;;;;;;;18.28;34.71;101532.16;5071170;28;20063;-68
2022/04/20 10:26:33;;;;;;;4.57;3.10;;;;;;;18.61;35.80;101519.81;5067219;28;20028;-73
2022/04/20 10:29:17;;;;;;;6.93;2.85;;;;;;;18.33;33.22;101536.22;5058514;28;20041;-67
2022/04/20 10:32:04;;;;;;;7.10;3.40;;;;;;;17.71;33.59;101520.88;5070347;28;20115;-76
2022/04/20 10:34:31;;;;;;;5.78;3.40;;;;;;;17.37;34.18;101522.22;5069013;28;20021;-73
2022/04/20 10:37:25;;;;;;;4.85;3.42;;;;;;;17.67;34.84;101516.66;5069148;28;20035;-67
2022/04/20 10:40:16;;;;;;;6.25;3.22;;;;;;;17.84;33.79;101518.75;5069807;28;20109;-67
2022/04/20 10:43:18;;;;;;;6.13;3.17;;;;;;;17.93;34.17;101519.78;5065408;28;20060;-67
2022/04/20 10:46:02;;;;;;;5.25;2.60;;;;;;;17.95;33.44;101517.78;5061983;28;20040;-75
2022/04/20 10:49:02;;;;;;;8.60;2.78;;;;;;;18.34;32.88;101517.81;5057457;28;20039;-70
2022/04/20 10:51:30;;;;;;;10.93;2.90;;;;;;;18.46;32.07;101519.38;5070941;28;20040;-77
2022/04/20 10:54:23;;;;;;;5.63;2.95;;;;;;;18.49;32.56;101513.59;5061234;28;20048;-67
2022/04/20 10:57:01;;;;;;;4.65;2.72;;;;;;;18.50;32.09;101504.28;5068280;28;20111;-74
2022/04/20 10:59:27;;;;;;;4.97;2.92;;;;;;;18.02;32.94;101507.06;5058502;28;20115;-74
2022/04/20 11:01:59;;;;;;;6.72;2.90;;;;;;;17.97;32.72;101507.50;5067304;28;20024;-67
2022/04/20 11:04:42;;;;;;;4.22;2.78;;;;;;;18.22;34.07;101499.66;5068140;28;20043;-68
2022/04/20 11:07:07;;;;;;;5.32;2.80;;;;;;;18.45;31.61;101495.59;5070949;28;20032;-66
2022/04/20 11:09:41;;;;;;;4.93;2.50;;;;;;;18.51;33.84;101500.53;5070718;28;20028;-73
2022/04/20 11:21:11;;;;;;;4.22;3.20;;;;;;;19.69;30.57;101486.22;5059965;28;20500;-71
2022/04/20 11:23:48;;;;;;;4.57;3.58;;;;;;;19.73;31.39;101484.91;5070803;28;20032;-66
2022/04/20 11:26:27;;;;;;;5.07;3.80;;;;;;;19.30;32.23;101477.25;5065158;28;20051;-73
2022/04/20 11:28:54;;;;;;;3.90;3.45;;;;;;;19.37;33.22;101473.75;5049843;28;20036;-74
2022/04/20 11:31:19;;;;;;;4.57;3.70;;;;;;;19.26;32.36;101484.13;5062500;28;20025;-72
2022/04/20 11:33:45;;;;;;;5.38;4.00;;;;;;;18.99;32.25;101471.16;5062365;28;20086;-75
2022/04/20 11:36:12;;;;;;;5.03;3.40;;;;;;;18.90;34.60;101472.06;5052406;28;20391;-67
2022/04/20 11:38:42;;;;;;;4.82;3.65;;;;;;;18.84;32.56;101474.41;5066661;28;20036;-67
2022/04/20 11:41:12;;;;;;;4.00;3.60;;;;;;;18.97;34.38;101465.75;5070750;28;20033;-66
2022/04/20 11:43:39;;;;;;;6.00;4.00;;;;;;;19.16;34.00;101463.97;5064342;28;20041;-66
2022/04/20 11:46:07;;;;;;;5.22;3.08;;;;;;;19.06;31.14;101466.75;5073389;28;20029;-67
2022/04/20 11:48:35;;;;;;;4.03;3.15;;;;;;;18.78;30.56;101450.16;5055095;28;20032;-75
2022/04/20 11:51:02;;;;;;;4.65;3.90;;;;;;;18.67;32.51;101444.81;5060927;28;20033;-75
2022/04/20 11:53:47;;;;;;;5.82;3.45;;;;;;;18.72;33.95;101445.25;5068439;28;20032;-67
2022/04/20 11:56:38;;;;;;;3.90;3.05;;;;;;;18.79;34.18;101440.91;5052089;28;20063;-67
2022/04/20 11:59:06;;;;;;;8.98;3.00;;;;;;;19.32;32.40;101445.75;5060821;28;20055;-74
2022/04/20 12:01:33;;;;;;;5.10;3.40;;;;;;;19.78;33.12;101441.13;5063472;28;20025;-67
2022/04/20 12:04:01;;;;;;;5.22;2.83;;;;;;;20.02;31.54;101439.63;5057353;28;20035;-74
2022/04/20 12:06:28;;;;;;;9.40;3.55;;;;;;;19.74;30.65;101444.34;5069944;28;20043;-67
2022/04/20 12:08:54;;;;;;;4.13;2.85;;;;;;;19.64;31.90;101438.03;5067700;28;20025;-67
2022/04/20 12:11:20;;;;;;;7.07;2.92;;;;;;;19.65;30.17;101437.00;5069796;28;20598;-68
2022/04/20 12:13:45;;;;;;;5.65;3.10;;;;;;;19.31;29.67;101430.22;5055281;28;20463;-68
2022/04/20 12:16:12;;;;;;;3.40;2.60;;;;;;;19.09;32.24;101423.19;5057750;28;20033;-68
2022/04/20 12:18:46;;;;;;;9.88;3.95;;;;;;;18.93;30.91;101423.00;5063341;28;20145;-66
2022/04/20 12:21:40;;;;;;;4.93;3.30;;;;;;;18.68;32.98;101418.09;5069764;28;20098;-66
2022/04/20 12:24:08;;;;;;;4.28;3.42;;;;;;;18.83;32.34;101414.72;5069637;28;20052;-76
2022/04/20 12:26:34;;;;;;;4.72;2.35;;;;;;;19.35;35.51;101415.09;5068073;28;20028;-69
2022/04/20 12:29:03;;;;;;;6.47;2.78;;;;;;;19.74;32.87;101419.50;5058302;28;20048;-76
2022/04/20 12:31:33;;;;;;;7.90;3.08;;;;;;;20.01;32.51;101410.28;5077769;28;20027;-74
2022/04/20 12:34:04;;;;;;;4.97;2.60;;;;;;;20.07;32.98;101418.78;5062079;28;20124;-73
2022/04/20 12:36:31;;;;;;;5.07;2.60;;;;;;;20.01;32.33;101422.19;5066621;28;20253;-72
2022/04/20 12:38:59;;;;;;;4.60;2.72;;;;;;;19.83;32.60;101416.66;5061713;28;20115;-68
2022/04/20 12:42:02;;;;;;;5.65;3.15;;;;;;;19.90;32.51;101416.03;5075171;28;20162;-73
2022/04/20 12:44:39;;;;;;;4.35;3.03;;;;;;;20.10;31.24;101410.19;5053715;28;20052;-66
2022/04/20 12:47:07;;;;;;;5.97;2.90;;;;;;;20.11;33.69;101402.78;5072526;28;20040;-68
2022/04/20 12:49:33;;;;;;;6.13;2.95;;;;;;;20.39;32.94;101397.97;5058401;28;20036;-76
2022/04/20 12:52:14;;;;;;;3.72;3.00;;;;;;;20.53;30.38;101396.56;5071040;28;20032;-75
2022/04/20 12:54:53;;;;;;;4.22;2.70;;;;;;;20.13;31.93;101392.41;5068612;28;20029;-67